Time;durP1;ratioP1;P1;durP2;ratioP2;P2;SDS_P1;SDS_P2;PMS_P1;PMS_P2;Temp;Humidity;BMP_temperature;BMP_pressure;BME280_temperature;BME280_humidity;BME280_pressure;Samples;Min_cycle;Max_cycle;Signal;HPM_P1;HPM_P2
2023/01/24 00:01:41;;;;;;;24.67;17.10;;;;;;;;;;6199233;23;20846;-77
2023/01/24 00:04:07;;;;;;;22.27;17.10;;;;;;;;;;6200851;23;20051;-77
2023/01/24 00:06:33;;;;;;;23.60;16.50;;;;;;;;;;6197861;23;20023;-76
2023/01/24 00:08:59;;;;;;;25.75;16.90;;;;;;;;;;6198919;23;20020;-77
2023/01/24 00:11:25;;;;;;;24.10;16.65;;;;;;;;;;6171287;23;20753;-77
2023/01/24 00:13:52;;;;;;;25.88;17.23;;;;;;;;;;6199037;23;20023;-78
2023/01/24 00:16:19;;;;;;;24.83;18.27;;;;;;;;;;6225978;22;20024;-75
2023/01/24 00:18:46;;;;;;;25.13;16.52;;;;;;;;;;6200008;23;20016;-75
2023/01/24 00:21:13;;;;;;;26.02;17.63;;;;;;;;;;6198446;23;20023;-75
2023/01/24 00:23:43;;;;;;;24.23;16.80;;;;;;;;;;6174515;23;20024;-75
2023/01/24 00:26:09;;;;;;;24.73;17.13;;;;;;;;;;6199466;23;20083;-76
2023/01/24 00:28:35;;;;;;;24.88;17.40;;;;;;;;;;6199743;23;20019;-75
2023/01/24 00:31:02;;;;;;;26.77;18.58;;;;;;;;;;6198671;23;20024;-75
2023/01/24 00:33:28;;;;;;;24.92;17.27;;;;;;;;;;6199435;23;20047;-75
2023/01/24 00:35:54;;;;;;;23.17;17.08;;;;;;;;;;6202392;23;20020;-74
2023/01/24 00:38:21;;;;;;;27.67;18.50;;;;;;;;;;6205530;23;20020;-74
2023/01/24 00:40:47;;;;;;;26.48;17.95;;;;;;;;;;6233013;23;20099;-74
2023/01/24 00:43:13;;;;;;;24.80;17.67;;;;;;;;;;6207662;23;20048;-75
2023/01/24 00:45:40;;;;;;;25.13;17.48;;;;;;;;;;6206732;23;20027;-74
2023/01/24 00:48:07;;;;;;;28.38;17.48;;;;;;;;;;6211764;23;20391;-74
2023/01/24 00:50:33;;;;;;;27.63;18.45;;;;;;;;;;6217075;23;20071;-75
2023/01/24 00:53:00;;;;;;;31.15;18.58;;;;;;;;;;6211670;23;20051;-76
2023/01/24 00:55:26;;;;;;;28.02;17.15;;;;;;;;;;6225367;23;20726;-76
2023/01/24 00:57:52;;;;;;;27.38;20.08;;;;;;;;;;6198849;23;20016;-75
2023/01/24 01:00:19;;;;;;;34.45;19.38;;;;;;;;;;6174080;23;20027;-75
2023/01/24 01:02:45;;;;;;;27.65;19.27;;;;;;;;;;6198797;23;20425;-76
2023/01/24 01:05:11;;;;;;;29.13;19.50;;;;;;;;;;6174131;23;20141;-76
2023/01/24 01:07:37;;;;;;;28.38;19.13;;;;;;;;;;6198888;23;20085;-75
2023/01/24 01:10:05;;;;;;;29.77;18.90;;;;;;;;;;6198730;23;20024;-75
2023/01/24 01:12:31;;;;;;;31.05;18.77;;;;;;;;;;6197514;23;20051;-74
2023/01/24 01:14:57;;;;;;;28.60;19.23;;;;;;;;;;6175070;23;20012;-75
2023/01/24 01:17:23;;;;;;;30.13;19.33;;;;;;;;;;6199643;23;20020;-74
2023/01/24 01:19:52;;;;;;;29.63;18.65;;;;;;;;;;6174828;23;20755;-74
2023/01/24 01:22:19;;;;;;;27.23;19.58;;;;;;;;;;6201681;23;20016;-78
2023/01/24 01:24:45;;;;;;;29.00;18.63;;;;;;;;;;6227946;23;20612;-78
2023/01/24 01:27:11;;;;;;;27.15;18.55;;;;;;;;;;6227286;23;20064;-78
2023/01/24 01:29:37;;;;;;;26.05;18.70;;;;;;;;;;6200952;23;20024;-78
2023/01/24 01:32:03;;;;;;;29.10;19.65;;;;;;;;;;6202827;23;20050;-77
2023/01/24 01:34:29;;;;;;;32.90;19.65;;;;;;;;;;6213066;23;20026;-78
2023/01/24 01:36:56;;;;;;;32.42;19.00;;;;;;;;;;6216619;23;20023;-77
2023/01/24 01:39:22;;;;;;;28.00;19.33;;;;;;;;;;6187017;23;20016;-77
2023/01/24 01:41:48;;;;;;;30.40;21.02;;;;;;;;;;6203199;23;20095;-75
2023/01/24 01:44:41;;;;;;;28.35;20.08;;;;;;;;;;6200030;23;20233;-76
2023/01/24 01:47:18;;;;;;;30.88;19.52;;;;;;;;;;6201287;23;20432;-76
2023/01/24 01:49:52;;;;;;;33.20;20.65;;;;;;;;;;6197504;23;20038;-77
2023/01/24 01:52:18;;;;;;;;;;;;;;;;;;6199893;23;20016;-76
2023/01/24 01:54:46;;;;;;;28.83;20.38;;;;;;;;;;6199089;23;19969;-76
2023/01/24 01:57:14;;;;;;;31.02;20.17;;;;;;;;;;6200011;23;20024;-76
2023/01/24 01:59:42;;;;;;;28.92;19.88;;;;;;;;;;6198631;23;20023;-77
2023/01/24 02:02:10;;;;;;;32.28;21.42;;;;;;;;;;6172528;23;20020;-76
2023/01/24 02:04:36;;;;;;;29.65;20.23;;;;;;;;;;6171133;23;20091;-77
2023/01/24 02:07:09;;;;;;;33.17;21.77;;;;;;;;;;6173848;23;20027;-77
2023/01/24 02:09:40;;;;;;;30.65;20.27;;;;;;;;;;6195884;23;20020;-76
2023/01/24 02:12:09;;;;;;;31.88;21.05;;;;;;;;;;6198150;23;20031;-77
2023/01/24 02:17:32;;;;;;;31.52;20.52;;;;;;;;;;6145121;23;20017;-77
2023/01/24 02:20:05;;;;;;;36.53;23.42;;;;;;;;;;6199753;23;20047;-77
2023/01/24 02:22:50;;;;;;;35.33;21.17;;;;;;;;;;6177024;23;20020;-77
2023/01/24 02:25:16;;;;;;;;;;;;;;;;;;6211000;23;20023;-77
2023/01/24 02:27:42;;;;;;;30.55;19.02;;;;;;;;;;6207918;23;19912;-77
2023/01/24 02:30:08;;;;;;;32.33;20.85;;;;;;;;;;6193319;23;20048;-77
2023/01/24 02:32:35;;;;;;;33.63;22.02;;;;;;;;;;6222554;23;20011;-77
2023/01/24 02:35:01;;;;;;;34.08;21.52;;;;;;;;;;6211189;23;20086;-76
2023/01/24 02:37:27;;;;;;;35.45;21.38;;;;;;;;;;6174221;23;20020;-77
2023/01/24 02:40:06;;;;;;;35.45;21.25;;;;;;;;;;6199995;23;20421;-78
2023/01/24 02:42:37;;;;;;;32.88;21.90;;;;;;;;;;6203349;23;20016;-76
2023/01/24 02:45:05;;;;;;;31.73;21.45;;;;;;;;;;6171686;23;20019;-77
2023/01/24 02:47:34;;;;;;;29.65;20.50;;;;;;;;;;6201480;23;20023;-77
2023/01/24 02:50:00;;;;;;;33.50;20.98;;;;;;;;;;6202454;23;20027;-76
2023/01/24 02:55:12;;;;;;;31.48;20.95;;;;;;;;;;6202515;23;20026;-76
2023/01/24 03:00:23;;;;;;;30.50;19.98;;;;;;;;;;6201113;23;20016;-77
2023/01/24 03:02:49;;;;;;;29.45;19.90;;;;;;;;;;6203119;23;20108;-77
2023/01/24 03:05:15;;;;;;;30.85;21.30;;;;;;;;;;6200496;23;20020;-76
2023/01/24 03:07:43;;;;;;;35.85;21.83;;;;;;;;;;6199745;23;20020;-76
2023/01/24 03:10:10;;;;;;;31.23;20.00;;;;;;;;;;6176470;23;20020;-77
2023/01/24 03:34:48;;;;;;;25.60;17.65;;;;;;;;;;6221133;23;20024;-77
2023/01/24 03:37:15;;;;;;;26.90;17.33;;;;;;;;;;6212721;23;20024;-77
2023/01/24 03:39:58;;;;;;;25.38;17.30;;;;;;;;;;6212688;23;20042;-77
2023/01/24 03:42:24;;;;;;;22.50;15.98;;;;;;;;;;6201406;23;20019;-77
2023/01/24 03:44:50;;;;;;;26.00;17.73;;;;;;;;;;6199394;23;20016;-78
2023/01/24 03:47:16;;;;;;;28.13;19.38;;;;;;;;;;6197253;23;20074;-77
2023/01/24 03:52:30;;;;;;;24.58;16.40;;;;;;;;;;6226701;23;20027;-77
2023/01/24 03:54:57;;;;;;;25.98;15.60;;;;;;;;;;6198582;23;20016;-77
2023/01/24 03:57:23;;;;;;;24.63;15.48;;;;;;;;;;6197252;23;20108;-77
2023/01/24 03:59:50;;;;;;;20.73;13.77;;;;;;;;;;6200615;23;20071;-78
2023/01/24 04:02:19;;;;;;;15.75;12.82;;;;;;;;;;6201918;23;20016;-77
2023/01/24 04:07:30;;;;;;;17.42;12.60;;;;;;;;;;6211402;23;20062;-77
2023/01/24 04:09:57;;;;;;;23.77;15.15;;;;;;;;;;6186143;23;20016;-79
2023/01/24 04:12:24;;;;;;;22.75;14.40;;;;;;;;;;6190851;23;20019;-78
2023/01/24 04:14:50;;;;;;;19.70;14.05;;;;;;;;;;6198914;23;20095;-76
2023/01/24 04:17:16;;;;;;;16.42;12.07;;;;;;;;;;6215978;23;20050;-77
2023/01/24 04:19:42;;;;;;;15.80;11.15;;;;;;;;;;6174615;23;20111;-76
2023/01/24 04:22:08;;;;;;;20.60;14.55;;;;;;;;;;6200679;23;20019;-77
2023/01/24 04:24:34;;;;;;;23.30;15.75;;;;;;;;;;6200339;23;20051;-77
2023/01/24 04:27:00;;;;;;;21.75;15.50;;;;;;;;;;6148713;23;20020;-77
2023/01/24 04:29:26;;;;;;;23.95;17.05;;;;;;;;;;6198886;23;20093;-76
2023/01/24 04:31:52;;;;;;;23.17;16.90;;;;;;;;;;6199080;23;20056;-77
2023/01/24 04:34:18;;;;;;;18.23;12.98;;;;;;;;;;6174502;23;20520;-77
2023/01/24 04:36:44;;;;;;;17.65;12.70;;;;;;;;;;6176820;23;20532;-78
2023/01/24 04:39:11;;;;;;;18.52;12.93;;;;;;;;;;6200313;23;20020;-77
2023/01/24 04:41:37;;;;;;;17.33;11.95;;;;;;;;;;6198229;23;20507;-77
2023/01/24 04:44:03;;;;;;;18.65;13.30;;;;;;;;;;6198602;23;20753;-78
2023/01/24 04:46:29;;;;;;;20.40;15.10;;;;;;;;;;6173419;23;20028;-78
2023/01/24 04:48:55;;;;;;;20.98;15.50;;;;;;;;;;6198635;23;20020;-77
2023/01/24 04:51:21;;;;;;;24.67;16.55;;;;;;;;;;6197936;23;20031;-78
2023/01/24 04:53:47;;;;;;;20.33;15.68;;;;;;;;;;6174925;23;20081;-78
2023/01/24 04:56:13;;;;;;;16.88;13.13;;;;;;;;;;6198633;23;20052;-78
2023/01/24 04:58:39;;;;;;;16.63;12.02;;;;;;;;;;6198292;23;20024;-79
2023/01/24 05:01:06;;;;;;;14.73;11.52;;;;;;;;;;6198942;23;20610;-78
2023/01/24 05:03:32;;;;;;;15.75;11.80;;;;;;;;;;6173294;23;20421;-79
2023/01/24 05:05:58;;;;;;;16.13;11.70;;;;;;;;;;6226062;23;20423;-78
2023/01/24 05:08:24;;;;;;;16.92;12.77;;;;;;;;;;6200656;23;20094;-78
2023/01/24 05:10:50;;;;;;;16.98;12.77;;;;;;;;;;6206490;23;20351;-78
2023/01/24 05:13:16;;;;;;;20.63;14.60;;;;;;;;;;6216111;23;20015;-77
2023/01/24 05:15:52;;;;;;;17.48;14.23;;;;;;;;;;6216798;23;20094;-77
2023/01/24 05:18:19;;;;;;;19.13;14.65;;;;;;;;;;6226142;22;20012;-77
2023/01/24 05:20:45;;;;;;;19.83;14.30;;;;;;;;;;6254708;22;20019;-77
2023/01/24 05:23:11;;;;;;;16.55;13.15;;;;;;;;;;6211451;23;20801;-77
2023/01/24 05:25:37;;;;;;;18.50;12.77;;;;;;;;;;6225486;23;20069;-77
2023/01/24 05:28:03;;;;;;;19.00;14.63;;;;;;;;;;6173668;23;20710;-77
2023/01/24 05:30:29;;;;;;;19.83;14.88;;;;;;;;;;6198702;23;20031;-77
2023/01/24 05:32:57;;;;;;;22.65;16.23;;;;;;;;;;6200877;23;20016;-77
2023/01/24 05:35:24;;;;;;;23.17;15.65;;;;;;;;;;6199009;23;20050;-78
2023/01/24 05:37:50;;;;;;;24.40;17.10;;;;;;;;;;6198442;23;20020;-78
2023/01/24 05:40:16;;;;;;;23.23;15.63;;;;;;;;;;6199585;23;20020;-78
2023/01/24 05:42:48;;;;;;;21.90;16.58;;;;;;;;;;6175921;23;20055;-77
2023/01/24 05:45:14;;;;;;;23.98;17.52;;;;;;;;;;6230121;23;20070;-77
2023/01/24 05:47:40;;;;;;;27.88;17.52;;;;;;;;;;6208628;23;20016;-77
2023/01/24 05:50:06;;;;;;;21.52;16.52;;;;;;;;;;6237700;23;20042;-77
2023/01/24 05:52:32;;;;;;;21.73;15.80;;;;;;;;;;6210859;23;20020;-78
2023/01/24 05:54:58;;;;;;;21.98;15.43;;;;;;;;;;6218604;23;20085;-77
2023/01/24 05:57:25;;;;;;;27.52;17.45;;;;;;;;;;6218410;23;20023;-77
2023/01/24 05:59:51;;;;;;;20.60;14.82;;;;;;;;;;6211711;23;20936;-77
2023/01/24 06:02:18;;;;;;;22.65;15.10;;;;;;;;;;6200979;23;20334;-76
2023/01/24 06:04:44;;;;;;;23.60;16.08;;;;;;;;;;6200053;23;20660;-78
2023/01/24 06:07:10;;;;;;;22.90;16.58;;;;;;;;;;6201340;23;20016;-77
2023/01/24 06:09:36;;;;;;;23.30;16.73;;;;;;;;;;6176239;23;20027;-77
2023/01/24 06:12:03;;;;;;;20.70;15.50;;;;;;;;;;6228384;23;20087;-78
2023/01/24 06:14:29;;;;;;;29.30;16.33;;;;;;;;;;6200970;23;20099;-78
2023/01/24 06:16:56;;;;;;;21.92;17.63;;;;;;;;;;6204141;23;20654;-78
2023/01/24 06:19:22;;;;;;;21.95;16.10;;;;;;;;;;6230836;23;20055;-78
2023/01/24 06:21:49;;;;;;;23.30;17.17;;;;;;;;;;6178278;23;20514;-79
2023/01/24 06:24:23;;;;;;;27.20;18.05;;;;;;;;;;6201446;23;20054;-78
2023/01/24 06:26:49;;;;;;;28.17;17.83;;;;;;;;;;6201762;23;20034;-78
2023/01/24 06:29:16;;;;;;;26.65;17.45;;;;;;;;;;6176580;23;20046;-78
2023/01/24 06:31:42;;;;;;;26.05;18.52;;;;;;;;;;6203837;23;20020;-77
2023/01/24 06:34:08;;;;;;;26.63;19.23;;;;;;;;;;6205077;23;20088;-77
2023/01/24 06:36:39;;;;;;;25.35;17.63;;;;;;;;;;6205012;23;20016;-77
2023/01/24 06:39:11;;;;;;;27.63;19.98;;;;;;;;;;6204588;23;20027;-78
2023/01/24 06:41:37;;;;;;;33.63;23.27;;;;;;;;;;6231401;23;20016;-77
2023/01/24 06:44:03;;;;;;;29.80;21.83;;;;;;;;;;6228921;23;20435;-78
2023/01/24 06:46:29;;;;;;;27.85;19.20;;;;;;;;;;6203302;23;20028;-78
2023/01/24 06:48:55;;;;;;;27.83;19.65;;;;;;;;;;6204463;23;20020;-78
2023/01/24 06:51:21;;;;;;;26.83;19.02;;;;;;;;;;6213734;23;20027;-78
2023/01/24 06:53:47;;;;;;;26.65;17.85;;;;;;;;;;6217674;23;20046;-78
2023/01/24 06:56:13;;;;;;;23.40;16.90;;;;;;;;;;6225021;23;20089;-78
2023/01/24 06:58:39;;;;;;;30.92;19.15;;;;;;;;;;6234107;22;20026;-78
2023/01/24 07:01:05;;;;;;;25.95;18.67;;;;;;;;;;6224749;23;20023;-77
2023/01/24 07:03:31;;;;;;;22.38;16.85;;;;;;;;;;6204456;23;20024;-75
2023/01/24 07:05:58;;;;;;;24.85;17.77;;;;;;;;;;6204045;23;20541;-75
2023/01/24 07:08:24;;;;;;;25.50;17.90;;;;;;;;;;6203514;23;20099;-75
2023/01/24 07:10:50;;;;;;;20.02;14.40;;;;;;;;;;6204173;23;20024;-75
2023/01/24 07:13:16;;;;;;;19.38;15.52;;;;;;;;;;6204554;23;20051;-74
2023/01/24 07:15:42;;;;;;;21.52;16.50;;;;;;;;;;6233374;22;20027;-75
2023/01/24 07:18:09;;;;;;;32.67;16.10;;;;;;;;;;6206735;23;20018;-75
2023/01/24 07:20:35;;;;;;;24.25;15.57;;;;;;;;;;6186074;23;20020;-75
2023/01/24 07:23:01;;;;;;;23.27;16.55;;;;;;;;;;6186852;23;20073;-75
2023/01/24 07:25:28;;;;;;;22.20;15.57;;;;;;;;;;6214417;23;20027;-74
2023/01/24 07:27:54;;;;;;;19.73;15.40;;;;;;;;;;6214794;23;20121;-75
2023/01/24 07:30:20;;;;;;;23.67;16.52;;;;;;;;;;6211291;23;20111;-75
2023/01/24 07:32:46;;;;;;;23.40;15.65;;;;;;;;;;6233041;23;20016;-74
2023/01/24 07:35:12;;;;;;;24.13;16.70;;;;;;;;;;6204690;23;20023;-74
2023/01/24 07:37:39;;;;;;;27.48;18.25;;;;;;;;;;6180568;23;20066;-75
2023/01/24 07:40:05;;;;;;;26.90;18.42;;;;;;;;;;6205092;23;20146;-74
2023/01/24 07:42:31;;;;;;;22.17;17.13;;;;;;;;;;6204605;23;20081;-75
2023/01/24 07:44:58;;;;;;;26.13;18.33;;;;;;;;;;6230850;23;20661;-75
2023/01/24 07:47:26;;;;;;;26.67;18.23;;;;;;;;;;6180398;23;20451;-74
2023/01/24 07:49:52;;;;;;;26.05;18.48;;;;;;;;;;6233008;23;20020;-75
2023/01/24 07:52:18;;;;;;;26.05;19.15;;;;;;;;;;6180734;23;20047;-75
2023/01/24 07:54:44;;;;;;;28.42;18.77;;;;;;;;;;6204929;23;20071;-75
2023/01/24 07:57:10;;;;;;;27.00;19.98;;;;;;;;;;6206173;23;20020;-75
2023/01/24 07:59:36;;;;;;;27.17;18.58;;;;;;;;;;6205220;23;20755;-75
2023/01/24 08:02:02;;;;;;;24.35;18.05;;;;;;;;;;6205850;23;20043;-74
2023/01/24 08:04:28;;;;;;;25.95;18.45;;;;;;;;;;6204425;23;20020;-75
2023/01/24 08:09:39;;;;;;;;;;;;;;;;;;6206438;23;20032;-75
2023/01/24 08:12:05;;;;;;;23.92;17.10;;;;;;;;;;6204399;23;20515;-76
2023/01/24 08:14:31;;;;;;;26.63;18.17;;;;;;;;;;6180226;23;20077;-75
2023/01/24 08:16:57;;;;;;;23.27;17.48;;;;;;;;;;6205876;23;20024;-76
2023/01/24 08:19:23;;;;;;;25.58;17.17;;;;;;;;;;6205935;23;20488;-72
2023/01/24 08:21:50;;;;;;;25.38;18.10;;;;;;;;;;6205691;23;20055;-76
2023/01/24 08:24:16;;;;;;;22.52;16.92;;;;;;;;;;6205007;23;20024;-76
2023/01/24 08:26:46;;;;;;;24.33;16.13;;;;;;;;;;6183243;23;20030;-75
2023/01/24 08:29:12;;;;;;;24.17;17.10;;;;;;;;;;6216680;23;20016;-76
2023/01/24 08:31:38;;;;;;;23.20;15.63;;;;;;;;;;6217737;23;20066;-75
2023/01/24 08:34:04;;;;;;;22.05;15.75;;;;;;;;;;6227390;23;20068;-75
2023/01/24 08:36:30;;;;;;;20.42;14.82;;;;;;;;;;6235608;23;20437;-75
2023/01/24 08:38:57;;;;;;;22.20;16.50;;;;;;;;;;6222222;23;20023;-75
2023/01/24 08:41:23;;;;;;;22.45;15.63;;;;;;;;;;6205236;23;20016;-76
2023/01/24 08:43:52;;;;;;;21.88;15.85;;;;;;;;;;6204647;23;20085;-76
2023/01/24 08:46:18;;;;;;;23.10;17.67;;;;;;;;;;6204110;23;20091;-73
2023/01/24 08:48:44;;;;;;;24.17;16.73;;;;;;;;;;6231698;23;20039;-76
2023/01/24 08:51:11;;;;;;;23.67;16.95;;;;;;;;;;6205875;23;20012;-75
2023/01/24 08:53:37;;;;;;;24.70;17.35;;;;;;;;;;6186908;23;20012;-76
2023/01/24 08:56:03;;;;;;;21.48;14.93;;;;;;;;;;6210984;23;20079;-76
2023/01/24 08:58:32;;;;;;;22.02;15.52;;;;;;;;;;6213452;23;20016;-73
2023/01/24 09:00:58;;;;;;;23.35;16.25;;;;;;;;;;6214661;23;20070;-73
2023/01/24 09:03:24;;;;;;;23.95;18.38;;;;;;;;;;6208713;23;20078;-75
2023/01/24 09:05:55;;;;;;;26.23;17.40;;;;;;;;;;6204934;23;20028;-74
2023/01/24 09:08:22;;;;;;;23.95;17.25;;;;;;;;;;6205319;23;20103;-74
2023/01/24 09:10:48;;;;;;;30.83;18.48;;;;;;;;;;6204139;23;20723;-74
2023/01/24 09:13:14;;;;;;;22.40;17.05;;;;;;;;;;6178618;23;20094;-75
2023/01/24 09:15:40;;;;;;;24.85;18.23;;;;;;;;;;6202627;23;20107;-75
2023/01/24 09:18:06;;;;;;;23.80;17.92;;;;;;;;;;6176359;23;20066;-75
2023/01/24 09:20:32;;;;;;;25.48;18.02;;;;;;;;;;6202059;23;20409;-74
2023/01/24 09:22:58;;;;;;;26.25;19.63;;;;;;;;;;6177230;23;20035;-74
2023/01/24 09:25:25;;;;;;;26.67;20.08;;;;;;;;;;6179771;23;20758;-75
2023/01/24 09:27:56;;;;;;;24.35;17.63;;;;;;;;;;6203538;23;20020;-74
2023/01/24 09:30:23;;;;;;;27.30;19.48;;;;;;;;;;6203822;23;20040;-74
2023/01/24 09:32:49;;;;;;;28.10;18.42;;;;;;;;;;6230319;23;20363;-74
2023/01/24 09:35:15;;;;;;;24.40;19.25;;;;;;;;;;6232178;23;20091;-74
2023/01/24 09:37:42;;;;;;;27.60;20.45;;;;;;;;;;6179093;23;20020;-75
2023/01/24 09:40:18;;;;;;;25.70;20.10;;;;;;;;;;6204145;23;20012;-75
2023/01/24 09:42:51;;;;;;;27.38;20.77;;;;;;;;;;6179362;23;20016;-74
2023/01/24 09:45:33;;;;;;;26.20;21.20;;;;;;;;;;6204483;23;20087;-75
2023/01/24 09:48:04;;;;;;;29.40;21.90;;;;;;;;;;6203813;23;20016;-75
2023/01/24 09:50:46;;;;;;;28.75;21.73;;;;;;;;;;6204229;23;20043;-75
2023/01/24 09:53:21;;;;;;;31.48;25.42;;;;;;;;;;6203073;23;20028;-75
2023/01/24 09:55:48;;;;;;;30.55;24.45;;;;;;;;;;6204419;23;20086;-75
2023/01/24 09:58:31;;;;;;;32.55;26.30;;;;;;;;;;6204358;23;20016;-75
2023/01/24 10:01:05;;;;;;;36.83;27.00;;;;;;;;;;6204772;23;20016;-75
2023/01/24 10:03:31;;;;;;;35.65;26.42;;;;;;;;;;6205884;23;20022;-75
2023/01/24 10:06:01;;;;;;;39.60;27.45;;;;;;;;;;6205056;23;20087;-75
2023/01/24 10:08:34;;;;;;;41.00;26.95;;;;;;;;;;6216173;23;20078;-73
2023/01/24 10:11:38;;;;;;;40.13;25.42;;;;;;;;;;6199882;23;20079;-74
2023/01/24 10:14:22;;;;;;;34.40;23.67;;;;;;;;;;6115775;23;20052;-74
2023/01/24 10:17:15;;;;;;;32.97;24.52;;;;;;;;;;6135926;23;20116;-75
2023/01/24 10:19:44;;;;;;;35.42;25.80;;;;;;;;;;6165025;23;20020;-75
2023/01/24 10:22:36;;;;;;;35.25;26.83;;;;;;;;;;6201658;23;20031;-74
2023/01/24 10:25:09;;;;;;;31.20;23.63;;;;;;;;;;6205505;23;20104;-75
2023/01/24 10:27:37;;;;;;;31.00;23.90;;;;;;;;;;6211252;23;20023;-75
2023/01/24 10:30:13;;;;;;;29.23;22.83;;;;;;;;;;6212740;23;20540;-74
2023/01/24 10:32:43;;;;;;;31.38;22.67;;;;;;;;;;6216956;23;20020;-75
2023/01/24 10:35:14;;;;;;;32.15;22.48;;;;;;;;;;6215153;23;20015;-75
2023/01/24 10:37:42;;;;;;;32.47;23.77;;;;;;;;;;6202619;23;20154;-75
2023/01/24 10:40:13;;;;;;;29.35;23.77;;;;;;;;;;6203265;23;20019;-75
2023/01/24 10:42:39;;;;;;;27.00;19.88;;;;;;;;;;6204255;23;20028;-75
2023/01/24 10:45:17;;;;;;;30.15;23.42;;;;;;;;;;6205980;23;20070;-76
2023/01/24 10:48:10;;;;;;;30.13;22.35;;;;;;;;;;6205543;23;20020;-75
2023/01/24 10:50:42;;;;;;;34.78;26.13;;;;;;;;;;6201000;23;20020;-74
2023/01/24 10:53:14;;;;;;;35.75;24.98;;;;;;;;;;6233232;23;20012;-75
2023/01/24 10:55:40;;;;;;;37.60;27.85;;;;;;;;;;6205547;23;20020;-76
2023/01/24 10:58:36;;;;;;;43.00;29.85;;;;;;;;;;6180415;23;20018;-76
2023/01/24 11:01:17;;;;;;;33.35;24.65;;;;;;;;;;6186565;23;20468;-76
2023/01/24 11:03:43;;;;;;;32.38;26.08;;;;;;;;;;6205740;23;20015;-76
2023/01/24 11:06:28;;;;;;;32.88;22.80;;;;;;;;;;6205657;23;20102;-75
2023/01/24 11:08:54;;;;;;;;;;;;;;;;;;6180218;23;20078;-75
2023/01/24 11:11:25;;;;;;;30.83;23.73;;;;;;;;;;6232799;23;20403;-75
2023/01/24 11:13:59;;;;;;;35.50;25.17;;;;;;;;;;6202964;23;20111;-77
2023/01/24 11:16:33;;;;;;;36.42;27.10;;;;;;;;;;6202333;23;20027;-75
2023/01/24 11:19:00;;;;;;;33.03;24.83;;;;;;;;;;6179321;23;20020;-76
2023/01/24 11:21:27;;;;;;;33.40;25.45;;;;;;;;;;6203798;23;20083;-75
2023/01/24 11:24:05;;;;;;;33.08;23.58;;;;;;;;;;6202639;23;20055;-76
2023/01/24 11:26:32;;;;;;;34.13;26.23;;;;;;;;;;6204710;23;20031;-75
2023/01/24 11:29:25;;;;;;;33.97;25.02;;;;;;;;;;6176939;23;20020;-77
2023/01/24 11:31:54;;;;;;;33.90;25.05;;;;;;;;;;6230374;23;20019;-81
2023/01/24 11:34:21;;;;;;;33.92;24.08;;;;;;;;;;6213202;23;20055;-80
2023/01/24 11:37:02;;;;;;;29.30;21.88;;;;;;;;;;6212149;23;20016;-81
2023/01/24 11:39:48;;;;;;;34.90;24.90;;;;;;;;;;6214048;23;20570;-80
2023/01/24 11:42:20;;;;;;;46.22;29.02;;;;;;;;;;6188475;23;20014;-79
2023/01/24 11:44:59;;;;;;;46.88;28.50;;;;;;;;;;6215823;23;20023;-80
2023/01/24 11:47:30;;;;;;;28.55;21.33;;;;;;;;;;6218990;23;20087;-80
2023/01/24 11:49:56;;;;;;;38.50;25.42;;;;;;;;;;6220838;23;20027;-81
2023/01/24 11:52:42;;;;;;;30.08;22.20;;;;;;;;;;6218790;23;20477;-79
2023/01/24 11:55:27;;;;;;;32.10;22.67;;;;;;;;;;6238684;22;20058;-80
2023/01/24 11:58:05;;;;;;;41.72;28.52;;;;;;;;;;6220465;22;20008;-81
2023/01/24 12:00:35;;;;;;;37.13;26.15;;;;;;;;;;6223968;23;20362;-82
2023/01/24 12:03:20;;;;;;;41.10;27.65;;;;;;;;;;6224906;23;20016;-81
2023/01/24 12:05:46;;;;;;;31.58;23.00;;;;;;;;;;6221549;23;20012;-80
2023/01/24 12:08:18;;;;;;;28.00;21.65;;;;;;;;;;6212545;23;20141;-81
2023/01/24 12:10:54;;;;;;;27.50;19.42;;;;;;;;;;6211116;23;20065;-80
2023/01/24 12:13:33;;;;;;;31.50;21.90;;;;;;;;;;6238828;23;20091;-81
2023/01/24 12:16:12;;;;;;;36.05;25.30;;;;;;;;;;6233939;22;20020;-79
2023/01/24 12:18:38;;;;;;;30.88;22.23;;;;;;;;;;6206652;23;20434;-78
2023/01/24 12:21:09;;;;;;;44.17;27.05;;;;;;;;;;6205492;23;20022;-79
2023/01/24 12:23:39;;;;;;;39.75;26.05;;;;;;;;;;6181435;23;20016;-79
2023/01/24 12:26:10;;;;;;;36.20;25.42;;;;;;;;;;6205528;23;20028;-78
2023/01/24 12:28:43;;;;;;;31.88;22.83;;;;;;;;;;6181927;23;20083;-78
2023/01/24 12:31:10;;;;;;;40.88;28.45;;;;;;;;;;6206724;23;20080;-77
2023/01/24 12:33:42;;;;;;;29.38;22.67;;;;;;;;;;6205216;23;20016;-77
2023/01/24 12:36:19;;;;;;;28.38;20.98;;;;;;;;;;6181975;23;20020;-77
2023/01/24 12:38:46;;;;;;;31.45;21.83;;;;;;;;;;6181430;23;20016;-78
2023/01/24 12:41:31;;;;;;;37.78;27.70;;;;;;;;;;6181277;23;20015;-78
2023/01/24 12:43:59;;;;;;;30.92;21.95;;;;;;;;;;6181137;23;20308;-78
2023/01/24 12:46:45;;;;;;;34.80;22.85;;;;;;;;;;6206163;23;20350;-78
2023/01/24 12:49:24;;;;;;;29.33;21.60;;;;;;;;;;6180449;23;20027;-78
2023/01/24 12:51:56;;;;;;;29.52;21.05;;;;;;;;;;6181281;23;20331;-78
2023/01/24 12:54:46;;;;;;;28.60;20.98;;;;;;;;;;6181370;23;20024;-78
2023/01/24 12:57:18;;;;;;;31.38;21.83;;;;;;;;;;6194120;23;20020;-78
2023/01/24 12:59:44;;;;;;;44.70;29.40;;;;;;;;;;6205822;23;20020;-79
2023/01/24 13:02:10;;;;;;;29.90;21.75;;;;;;;;;;6181447;23;20020;-79
2023/01/24 13:04:42;;;;;;;30.88;23.00;;;;;;;;;;6179547;23;20099;-79
2023/01/24 13:07:31;;;;;;;36.50;27.65;;;;;;;;;;6178477;23;20063;-79
2023/01/24 13:10:00;;;;;;;35.17;27.00;;;;;;;;;;6204136;23;20027;-78
2023/01/24 13:12:27;;;;;;;36.40;28.75;;;;;;;;;;6178826;23;20762;-77
2023/01/24 13:14:55;;;;;;;34.67;24.65;;;;;;;;;;6202986;23;20430;-75
2023/01/24 13:17:40;;;;;;;31.90;23.23;;;;;;;;;;6203641;23;20098;-78
2023/01/24 13:20:20;;;;;;;30.25;21.40;;;;;;;;;;6177926;23;20012;-78
2023/01/24 13:22:47;;;;;;;30.30;20.92;;;;;;;;;;6202928;23;20079;-79
2023/01/24 13:25:22;;;;;;;31.98;21.98;;;;;;;;;;6178561;23;20081;-79
2023/01/24 13:27:57;;;;;;;29.42;20.92;;;;;;;;;;6182258;23;20074;-80
2023/01/24 13:30:44;;;;;;;32.22;21.67;;;;;;;;;;6190527;23;20078;-80
2023/01/24 13:33:15;;;;;;;35.05;24.85;;;;;;;;;;6220857;23;20475;-76
2023/01/24 13:35:51;;;;;;;32.38;24.38;;;;;;;;;;6207721;23;20020;-78
2023/01/24 13:38:35;;;;;;;34.88;24.23;;;;;;;;;;6211808;23;20016;-79
2023/01/24 13:41:03;;;;;;;33.80;25.47;;;;;;;;;;6210520;23;20008;-78
2023/01/24 13:43:47;;;;;;;34.53;25.10;;;;;;;;;;6196415;23;20255;-78
2023/01/24 13:46:13;;;;;;;;;;;;;;;;;;6204758;23;20327;-78
2023/01/24 13:48:43;;;;;;;38.50;25.58;;;;;;;;;;6203472;23;19915;-78
2023/01/24 13:51:15;;;;;;;40.40;28.65;;;;;;;;;;6178678;23;20024;-77
2023/01/24 13:54:00;;;;;;;37.17;26.55;;;;;;;;;;6179107;23;20027;-78
2023/01/24 13:56:26;;;;;;;;;;;;;;;;;;6179534;23;20023;-78
2023/01/24 13:58:52;;;;;;;33.83;23.20;;;;;;;;;;6177914;23;19919;-77
2023/01/24 14:01:20;;;;;;;50.72;36.30;;;;;;;;;;6178456;23;20839;-78
2023/01/24 14:04:03;;;;;;;32.47;23.65;;;;;;;;;;6178333;23;20074;-79
2023/01/24 14:06:41;;;;;;;39.58;27.90;;;;;;;;;;6178481;23;20028;-79
2023/01/24 14:09:25;;;;;;;30.60;22.58;;;;;;;;;;6178453;23;20024;-79
2023/01/24 14:11:54;;;;;;;35.20;25.25;;;;;;;;;;6178106;23;20019;-79
2023/01/24 14:14:26;;;;;;;35.05;25.30;;;;;;;;;;6177600;22;20026;-78
2023/01/24 14:16:52;;;;;;;32.92;22.58;;;;;;;;;;6203543;23;20039;-79
2023/01/24 14:19:28;;;;;;;34.28;25.67;;;;;;;;;;6204774;23;20012;-78
2023/01/24 14:22:06;;;;;;;36.90;28.13;;;;;;;;;;6180136;23;20717;-79
2023/01/24 14:24:48;;;;;;;35.35;25.10;;;;;;;;;;6180666;23;20027;-79
2023/01/24 14:27:14;;;;;;;36.92;25.73;;;;;;;;;;6180943;23;20051;-79
2023/01/24 14:29:42;;;;;;;35.35;24.30;;;;;;;;;;6205532;23;20028;-78
2023/01/24 14:32:18;;;;;;;36.75;25.50;;;;;;;;;;6180031;23;20395;-78
2023/01/24 14:34:47;;;;;;;36.13;24.00;;;;;;;;;;6180007;23;20060;-77
2023/01/24 14:37:16;;;;;;;33.30;23.33;;;;;;;;;;6178081;23;20024;-78
2023/01/24 14:39:42;;;;;;;35.10;24.55;;;;;;;;;;6177294;23;20123;-79
2023/01/24 14:42:16;;;;;;;35.13;25.20;;;;;;;;;;6204548;23;20331;-79
2023/01/24 14:44:50;;;;;;;33.20;24.17;;;;;;;;;;6205983;23;20753;-79
2023/01/24 14:47:16;;;;;;;35.15;23.30;;;;;;;;;;6204874;23;20027;-78
2023/01/24 14:49:46;;;;;;;32.85;23.75;;;;;;;;;;6205176;23;20109;-79
2023/01/24 14:52:17;;;;;;;35.95;24.52;;;;;;;;;;6205906;23;20156;-79
2023/01/24 14:54:48;;;;;;;33.40;23.45;;;;;;;;;;6204825;23;20024;-79
2023/01/24 14:57:20;;;;;;;33.05;23.35;;;;;;;;;;6181221;23;20031;-79
2023/01/24 14:59:49;;;;;;;41.10;27.33;;;;;;;;;;6208837;23;20120;-80
2023/01/24 15:02:17;;;;;;;42.53;26.88;;;;;;;;;;6191015;23;20016;-80
2023/01/24 15:04:47;;;;;;;32.33;23.10;;;;;;;;;;6215288;23;20043;-78
2023/01/24 15:07:14;;;;;;;39.70;28.48;;;;;;;;;;6199707;23;20016;-79
2023/01/24 15:09:41;;;;;;;42.42;27.23;;;;;;;;;;6223418;23;20087;-79
2023/01/24 15:12:26;;;;;;;37.15;25.40;;;;;;;;;;6240490;23;20087;-78